Time;durP1;ratioP1;P1;durP2;ratioP2;P2;SDS_P1;SDS_P2;PMS_P1;PMS_P2;Temp;Humidity;BMP_temperature;BMP_pressure;BME280_temperature;BME280_humidity;BME280_pressure;Samples;Min_cycle;Max_cycle;Signal;HPM_P1;HPM_P2
2022/06/13 00:00:52;;;;;;;4.23;2.80;;;17.90;99.90;;;;;;4912257;29;20677;-82
2022/06/13 00:03:20;;;;;;;5.03;3.47;;;17.80;99.90;;;;;;4901660;29;20204;-82
2022/06/13 00:05:47;;;;;;;5.83;3.47;;;17.80;99.90;;;;;;4901085;29;20230;-82
2022/06/13 00:08:14;;;;;;;3.20;2.90;;;17.80;99.90;;;;;;4891491;29;20240;-81
2022/06/13 00:10:40;;;;;;;6.03;3.20;;;17.80;99.90;;;;;;4902350;29;20209;-81
2022/06/13 00:13:07;;;;;;;5.20;3.37;;;17.80;99.90;;;;;;4902481;29;20210;-81
2022/06/13 00:15:34;;;;;;;6.47;5.37;;;17.80;99.90;;;;;;4898498;29;20252;-81
2022/06/13 00:18:01;;;;;;;4.10;2.77;;;17.80;99.90;;;;;;4899323;29;20203;-81
2022/06/13 00:20:29;;;;;;;3.70;3.03;;;17.70;99.90;;;;;;4902176;29;20200;-81
2022/06/13 00:22:56;;;;;;;5.80;5.30;;;17.80;99.90;;;;;;4918667;29;20208;-81
2022/06/13 00:25:23;;;;;;;4.10;3.73;;;17.70;99.90;;;;;;4917931;29;20223;-81
2022/06/13 00:27:50;;;;;;;2.97;2.70;;;17.70;99.90;;;;;;4905286;29;20231;-83
2022/06/13 00:30:17;;;;;;;3.30;3.00;;;17.70;99.90;;;;;;4897145;29;20226;-81
2022/06/13 00:32:44;;;;;;;3.60;3.03;;;17.70;99.90;;;;;;4901473;29;20211;-81
2022/06/13 00:35:11;;;;;;;3.93;3.13;;;17.70;99.90;;;;;;4911204;29;20639;-81
2022/06/13 00:37:39;;;;;;;3.67;3.10;;;17.60;99.90;;;;;;4912678;29;20670;-81
2022/06/13 00:40:07;;;;;;;2.90;2.70;;;17.60;99.90;;;;;;4919537;29;20614;-81
2022/06/13 00:42:34;;;;;;;3.57;3.00;;;17.50;99.90;;;;;;4896446;29;20201;-81
2022/06/13 00:45:10;;;;;;;4.33;3.73;;;17.50;99.90;;;;;;4918346;29;20232;-81
2022/06/13 00:47:38;;;;;;;4.13;3.37;;;17.60;99.90;;;;;;4899260;29;20256;-82
2022/06/13 00:50:08;;;;;;;8.33;7.70;;;17.50;99.90;;;;;;4902843;29;20251;-81
2022/06/13 00:52:40;;;;;;;3.70;3.40;;;17.50;99.90;;;;;;4900360;29;20204;-82
2022/06/13 00:55:10;;;;;;;4.17;3.73;;;17.50;99.90;;;;;;4900702;29;20220;-82
2022/06/13 00:57:38;;;;;;;6.33;5.83;;;17.60;99.90;;;;;;4895298;29;20273;-81
2022/06/13 01:00:11;;;;;;;6.23;5.63;;;17.60;99.90;;;;;;4917519;29;20205;-82
2022/06/13 01:02:41;;;;;;;5.40;5.00;;;17.60;99.90;;;;;;4921774;29;20205;-81
2022/06/13 01:05:09;;;;;;;6.83;6.33;;;17.60;99.90;;;;;;4915637;29;20215;-81
2022/06/13 01:07:37;;;;;;;5.63;5.23;;;17.60;99.90;;;;;;4906165;29;20223;-81
2022/06/13 01:12:52;;;;;;;3.60;3.30;;;17.60;99.90;;;;;;4903087;29;20200;-81
2022/06/13 01:15:32;;;;;;;3.73;3.27;;;17.60;99.90;;;;;;4905781;29;20595;-82
2022/06/13 01:18:13;;;;;;;3.20;2.90;;;17.60;99.90;;;;;;4915268;29;20200;-81
2022/06/13 01:21:02;;;;;;;3.17;2.90;;;17.70;99.90;;;;;;4923970;29;20207;-81
2022/06/13 01:24:17;;;;;;;3.20;2.90;;;17.60;99.90;;;;;;4912071;29;20204;-81
2022/06/13 01:27:12;;;;;;;7.30;6.63;;;17.60;99.90;;;;;;4911386;29;20583;-81
2022/06/13 01:30:15;;;;;;;7.87;7.37;;;17.60;99.90;;;;;;4898278;29;20211;-81
2022/06/13 01:32:53;;;;;;;3.53;3.00;;;17.60;99.90;;;;;;4867068;29;21014;-82
2022/06/13 01:35:43;;;;;;;3.53;3.23;;;17.50;99.90;;;;;;4896372;29;20236;-82
2022/06/13 01:38:24;;;;;;;7.50;7.00;;;17.50;99.90;;;;;;4912222;29;20669;-81
2022/06/13 01:41:07;;;;;;;6.47;6.07;;;17.50;99.90;;;;;;4921299;29;20247;-81
2022/06/13 01:43:48;;;;;;;6.80;6.30;;;17.60;99.90;;;;;;4910350;29;20232;-80
2022/06/13 01:46:21;;;;;;;7.67;7.17;;;17.60;99.90;;;;;;4905123;29;20227;-81
2022/06/13 01:49:00;;;;;;;8.50;7.80;;;17.60;99.90;;;;;;4904861;29;20234;-81
2022/06/13 01:51:36;;;;;;;7.73;7.23;;;17.60;99.90;;;;;;4920982;29;20204;-81
2022/06/13 01:54:15;;;;;;;7.03;6.53;;;17.60;99.90;;;;;;4906468;29;20227;-81
2022/06/13 01:56:52;;;;;;;7.20;6.70;;;17.60;99.90;;;;;;4917896;29;20208;-81
2022/06/13 01:59:24;;;;;;;8.00;7.40;;;17.60;99.90;;;;;;4911104;29;20200;-81
2022/06/13 02:01:57;;;;;;;8.40;7.80;;;17.50;99.90;;;;;;4896522;29;20204;-81
2022/06/13 02:04:32;;;;;;;9.67;8.87;;;17.50;99.90;;;;;;4914416;29;20657;-82
2022/06/13 02:07:08;;;;;;;9.30;8.50;;;17.40;99.90;;;;;;4921307;29;20215;-81
2022/06/13 02:09:41;;;;;;;8.50;7.80;;;17.40;99.90;;;;;;4920903;29;20279;-81
2022/06/13 02:12:11;;;;;;;8.33;7.83;;;17.30;99.90;;;;;;4920899;29;20200;-82
2022/06/13 02:14:42;;;;;;;5.00;4.63;;;17.20;99.90;;;;;;4901139;29;20713;-81
2022/06/13 02:17:12;;;;;;;4.00;3.70;;;17.20;99.90;;;;;;4905199;29;20200;-82
2022/06/13 02:19:45;;;;;;;3.90;3.50;;;17.20;99.90;;;;;;4914282;29;20211;-81
2022/06/13 02:22:17;;;;;;;4.03;3.73;;;17.20;99.90;;;;;;4895169;29;20227;-81
2022/06/13 02:24:51;;;;;;;4.40;4.00;;;17.20;99.90;;;;;;4903942;29;20224;-82
2022/06/13 02:27:20;;;;;;;5.40;5.00;;;17.20;99.90;;;;;;4904143;29;20231;-81
2022/06/13 02:29:51;;;;;;;6.40;5.80;;;17.20;99.90;;;;;;4904749;29;20681;-81
2022/06/13 02:32:23;;;;;;;6.83;6.33;;;17.20;99.90;;;;;;4897638;29;20697;-81
2022/06/13 02:34:54;;;;;;;7.13;6.47;;;17.20;99.90;;;;;;4904251;29;20235;-81
2022/06/13 02:37:25;;;;;;;6.73;6.30;;;17.20;99.90;;;;;;4901140;29;20200;-81
2022/06/13 02:39:59;;;;;;;6.30;5.80;;;17.20;99.90;;;;;;4916245;29;20660;-81
2022/06/13 02:42:30;;;;;;;5.60;5.20;;;17.20;99.90;;;;;;4903521;29;20329;-82
2022/06/13 02:45:02;;;;;;;4.67;4.37;;;17.10;99.90;;;;;;4918254;29;20216;-82
2022/06/13 02:47:33;;;;;;;4.77;4.30;;;17.10;99.90;;;;;;4908198;29;20244;-83
2022/06/13 02:50:07;;;;;;;4.27;3.90;;;17.20;99.90;;;;;;4902448;29;20200;-81
2022/06/13 02:52:39;;;;;;;4.30;4.00;;;17.20;99.90;;;;;;4903964;29;20214;-78
2022/06/13 02:55:09;;;;;;;6.30;5.80;;;17.10;99.90;;;;;;4917621;29;20247;-77
2022/06/13 02:57:54;;;;;;;8.30;7.80;;;17.10;99.90;;;;;;4908775;29;20207;-77
2022/06/13 03:00:26;;;;;;;9.40;8.80;;;17.10;99.90;;;;;;4898101;29;20667;-78
2022/06/13 03:03:09;;;;;;;9.23;8.63;;;17.10;99.90;;;;;;4905356;29;20211;-79
2022/06/13 03:05:52;;;;;;;8.10;7.60;;;17.10;99.90;;;;;;4919214;29;20227;-77
2022/06/13 03:08:55;;;;;;;8.50;7.90;;;17.10;99.90;;;;;;4896085;29;20231;-78
2022/06/13 03:11:55;;;;;;;8.87;8.27;;;17.10;99.90;;;;;;4912678;29;20215;-78
2022/06/13 03:14:46;;;;;;;8.67;8.17;;;17.10;99.90;;;;;;4893637;29;20242;-77
2022/06/13 03:17:21;;;;;;;6.33;5.93;;;17.10;99.90;;;;;;4910189;29;20587;-78
2022/06/13 03:19:53;;;;;;;6.63;6.23;;;17.10;99.90;;;;;;4902846;29;20238;-80
2022/06/13 03:22:26;;;;;;;6.47;5.97;;;17.20;99.90;;;;;;4914737;29;20211;-79
2022/06/13 03:25:01;;;;;;;6.97;6.57;;;17.10;99.90;;;;;;4899661;29;20708;-81
2022/06/13 03:27:32;;;;;;;7.27;6.67;;;17.20;99.90;;;;;;4900888;29;20746;-79
2022/06/13 03:30:04;;;;;;;8.40;7.90;;;17.20;99.90;;;;;;4916843;29;20208;-79
2022/06/13 03:32:37;;;;;;;5.57;5.20;;;17.10;99.90;;;;;;4911594;29;20202;-79
2022/06/13 03:35:09;;;;;;;5.30;4.80;;;17.10;99.90;;;;;;4917731;29;20229;-79
2022/06/13 03:37:42;;;;;;;5.67;5.27;;;17.20;99.90;;;;;;4916204;29;20223;-79
2022/06/13 03:40:12;;;;;;;5.90;5.40;;;17.20;99.90;;;;;;4915949;29;20327;-80
2022/06/13 03:42:44;;;;;;;5.70;5.20;;;17.20;99.90;;;;;;4917120;29;20251;-80
2022/06/13 03:45:17;;;;;;;6.97;6.30;;;17.20;99.90;;;;;;4909754;29;20231;-80
2022/06/13 03:47:48;;;;;;;8.63;8.03;;;17.20;99.90;;;;;;4918092;29;20724;-80
2022/06/13 03:50:22;;;;;;;10.40;9.60;;;17.30;99.90;;;;;;4890016;29;20244;-80
2022/06/13 03:52:57;;;;;;;11.03;10.33;;;17.30;99.90;;;;;;4907438;29;20283;-80
2022/06/13 03:55:29;;;;;;;10.03;9.40;;;17.30;99.90;;;;;;4917790;29;20227;-80
2022/06/13 03:58:01;;;;;;;11.00;10.20;;;17.30;99.90;;;;;;4902129;29;20566;-80
2022/06/13 04:00:32;;;;;;;10.80;10.10;;;17.30;99.90;;;;;;4912476;29;20203;-79
2022/06/13 04:03:01;;;;;;;11.20;10.60;;;17.30;99.90;;;;;;4900060;29;20207;-80
2022/06/13 04:05:38;;;;;;;11.27;10.57;;;17.30;99.90;;;;;;4917426;29;20228;-80
2022/06/13 04:08:09;;;;;;;9.33;8.73;;;17.30;99.90;;;;;;4900609;29;20588;-80
2022/06/13 04:10:41;;;;;;;7.83;7.33;;;17.30;99.90;;;;;;4901600;29;20724;-79
2022/06/13 04:13:20;;;;;;;10.80;10.17;;;17.40;99.90;;;;;;4900726;29;20208;-79
2022/06/13 04:15:56;;;;;;;10.50;9.80;;;17.40;99.90;;;;;;4899907;29;20263;-80
2022/06/13 04:18:45;;;;;;;7.93;7.43;;;17.30;99.90;;;;;;4898837;29;20210;-79
2022/06/13 04:21:21;;;;;;;7.60;7.10;;;17.40;99.90;;;;;;4914460;29;20685;-80
2022/06/13 04:23:58;;;;;;;7.17;6.67;;;17.40;99.90;;;;;;4914705;29;20578;-81
2022/06/13 04:26:31;;;;;;;7.00;6.50;;;17.50;99.90;;;;;;4898905;29;20688;-82
2022/06/13 04:29:10;;;;;;;7.00;6.50;;;17.50;99.90;;;;;;4915723;29;20712;-81
2022/06/13 04:31:37;;;;;;;9.30;8.50;;;17.60;99.90;;;;;;4899238;29;20200;-81
2022/06/13 04:34:09;;;;;;;9.10;8.50;;;17.70;99.90;;;;;;4891403;29;20228;-82
2022/06/13 04:36:38;;;;;;;8.10;7.50;;;17.80;99.90;;;;;;4901723;29;20214;-82
2022/06/13 04:39:09;;;;;;;8.20;7.60;;;17.90;99.90;;;;;;4917700;29;20283;-81
2022/06/13 04:41:40;;;;;;;8.77;8.07;;;18.10;99.90;;;;;;4900756;29;20264;-81
2022/06/13 04:44:13;;;;;;;7.70;7.00;;;18.30;99.90;;;;;;4901125;29;20224;-82
2022/06/13 04:46:43;;;;;;;7.83;7.30;;;18.50;99.90;;;;;;4897426;29;20209;-81
2022/06/13 04:49:27;;;;;;;9.17;8.47;;;18.60;99.90;;;;;;4898017;29;20229;-81
2022/06/13 04:51:56;;;;;;;9.50;8.80;;;18.60;99.90;;;;;;4895678;29;20209;-81
2022/06/13 04:54:31;;;;;;;9.17;8.47;;;18.40;99.90;;;;;;4916319;29;20711;-82
2022/06/13 04:56:59;;;;;;;9.50;8.77;;;18.40;99.90;;;;;;4899631;29;20270;-82
2022/06/13 04:59:27;;;;;;;8.27;7.67;;;18.40;99.90;;;;;;4900836;29;20287;-82
2022/06/13 05:01:55;;;;;;;8.17;7.57;;;18.40;99.90;;;;;;4916806;29;20236;-82
2022/06/13 05:04:25;;;;;;;7.17;6.57;;;18.30;99.90;;;;;;4899984;29;20307;-81
2022/06/13 05:06:54;;;;;;;6.40;5.90;;;18.20;99.90;;;;;;4900676;29;20242;-81
2022/06/13 05:09:24;;;;;;;7.07;6.17;;;18.20;99.90;;;;;;4903798;29;20220;-81
2022/06/13 05:11:57;;;;;;;6.40;5.80;;;18.30;99.90;;;;;;4909964;29;20244;-80
2022/06/13 05:14:29;;;;;;;8.57;5.73;;;18.30;99.90;;;;;;4909681;29;20218;-82
2022/06/13 05:17:11;;;;;;;8.90;8.30;;;18.40;99.90;;;;;;4917241;29;20204;-82
2022/06/13 05:19:47;;;;;;;6.23;5.73;;;18.50;99.90;;;;;;4901079;29;20200;-82
2022/06/13 05:22:28;;;;;;;10.47;9.57;;;18.60;99.90;;;;;;4889962;29;20211;-82
2022/06/13 05:25:37;;;;;;;10.60;9.63;;;18.70;99.90;;;;;;4906648;29;20245;-81
2022/06/13 05:28:05;;;;;;;9.50;8.70;;;18.90;99.90;;;;;;4906193;29;20225;-81
2022/06/13 05:30:32;;;;;;;10.40;9.60;;;19.10;99.90;;;;;;4907194;29;20202;-82
2022/06/13 05:32:59;;;;;;;8.13;7.43;;;19.20;99.90;;;;;;4899347;29;20642;-82
2022/06/13 05:35:28;;;;;;;9.53;8.77;;;19.30;99.90;;;;;;4915894;29;20233;-82
2022/06/13 05:37:57;;;;;;;5.70;3.97;;;19.60;99.90;;;;;;4917022;29;20210;-83
2022/06/13 05:40:25;;;;;;;7.27;6.57;;;20.10;99.90;;;;;;4917734;29;20192;-82
2022/06/13 05:42:52;;;;;;;4.67;4.27;;;20.30;99.90;;;;;;4900889;29;20205;-82
2022/06/13 05:45:22;;;;;;;4.60;4.20;;;20.80;99.90;;;;;;4900800;29;20224;-82
2022/06/13 05:47:52;;;;;;;5.60;3.43;;;21.50;99.90;;;;;;4903507;29;20676;-82
2022/06/13 05:50:22;;;;;;;6.83;6.17;;;22.10;99.90;;;;;;4918684;29;20236;-82
2022/06/13 05:52:49;;;;;;;5.43;4.93;;;22.40;99.90;;;;;;4907533;29;20208;-83
2022/06/13 05:55:16;;;;;;;9.00;8.20;;;23.00;99.90;;;;;;4899798;29;20232;-82
2022/06/13 05:57:43;;;;;;;5.77;3.93;;;23.40;99.90;;;;;;4896820;29;20209;-83
2022/06/13 06:00:17;;;;;;;7.87;5.57;;;23.60;99.90;;;;;;4912609;29;20195;-82
2022/06/13 06:02:45;;;;;;;5.30;4.70;;;23.60;99.90;;;;;;4904574;29;20677;-81
2022/06/13 06:05:12;;;;;;;8.23;7.43;;;23.70;99.90;;;;;;4920026;29;20228;-82
2022/06/13 06:07:40;;;;;;;9.03;7.30;;;23.80;99.90;;;;;;4904948;29;20256;-81
2022/06/13 06:10:08;;;;;;;8.90;7.17;;;24.10;99.90;;;;;;4896786;29;20256;-82
2022/06/13 06:12:35;;;;;;;8.63;7.30;;;24.40;99.90;;;;;;4900347;29;20649;-82
2022/06/13 06:15:02;;;;;;;9.70;7.50;;;24.10;99.90;;;;;;4917575;29;20650;-82
2022/06/13 06:17:28;;;;;;;7.77;7.00;;;24.20;99.90;;;;;;4901378;29;20228;-82
2022/06/13 06:19:56;;;;;;;8.93;7.33;;;24.30;99.90;;;;;;4903277;29;20669;-82
2022/06/13 06:22:23;;;;;;;8.17;6.77;;;24.40;99.90;;;;;;4910449;29;20200;-82
2022/06/13 06:24:50;;;;;;;7.57;6.83;;;24.40;99.90;;;;;;4901905;29;20224;-82
2022/06/13 06:27:17;;;;;;;7.97;6.47;;;24.50;99.90;;;;;;4923735;29;20195;-82
2022/06/13 06:29:44;;;;;;;8.07;6.70;;;24.50;99.90;;;;;;4903992;29;20752;-82
2022/06/13 06:32:11;;;;;;;8.27;6.40;;;24.70;99.90;;;;;;4901230;29;20271;-81
2022/06/13 06:34:38;;;;;;;6.87;6.27;;;24.70;99.90;;;;;;4896363;29;20224;-82
2022/06/13 06:37:07;;;;;;;7.57;6.80;;;24.70;99.90;;;;;;4900859;29;20216;-80
2022/06/13 06:39:34;;;;;;;7.50;6.90;;;24.80;99.90;;;;;;4890158;29;20202;-80
2022/06/13 06:42:01;;;;;;;7.93;6.40;;;24.80;99.90;;;;;;4903644;29;20212;-81
2022/06/13 06:44:28;;;;;;;8.27;6.90;;;24.90;99.90;;;;;;4897037;29;20224;-80
2022/06/13 06:46:55;;;;;;;6.73;6.03;;;24.90;99.90;;;;;;4902762;29;20212;-79
2022/06/13 06:49:22;;;;;;;7.43;3.20;;;25.00;99.90;;;;;;4903312;29;20224;-81
2022/06/13 06:51:49;;;;;;;4.77;2.90;;;25.00;99.90;;;;;;4902260;29;20494;-80
2022/06/13 06:59:55;;;;;;;7.33;3.17;;;25.20;99.90;;;;;;4900369;29;20192;-80
2022/06/13 07:02:23;;;;;;;10.60;3.53;;;25.30;99.90;;;;;;4919075;29;20227;-81
2022/06/13 07:04:52;;;;;;;5.00;3.10;;;25.30;99.90;;;;;;4904066;29;20231;-82
2022/06/13 07:07:19;;;;;;;6.67;4.23;;;25.30;99.90;;;;;;4925965;29;20232;-80
2022/06/13 07:09:47;;;;;;;7.63;4.27;;;25.10;99.90;;;;;;4902873;29;20223;-80
2022/06/13 07:12:14;;;;;;;6.57;3.70;;;25.30;99.90;;;;;;4899939;29;20561;-80
2022/06/13 07:14:41;;;;;;;7.77;4.43;;;25.50;99.90;;;;;;4917180;29;20259;-80
2022/06/13 07:17:09;;;;;;;6.87;4.27;;;25.60;99.90;;;;;;4918889;29;20661;-80
2022/06/13 07:19:36;;;;;;;6.80;4.33;;;25.50;99.90;;;;;;4918223;29;20196;-81
2022/06/13 07:22:05;;;;;;;8.07;6.60;;;25.40;99.90;;;;;;4918664;29;20200;-80
2022/06/13 07:24:32;;;;;;;7.60;5.73;;;25.60;99.90;;;;;;4906787;29;20709;-80
2022/06/13 07:27:00;;;;;;;8.00;7.10;;;25.70;99.90;;;;;;4900784;29;20204;-80
2022/06/13 07:29:27;;;;;;;8.37;5.10;;;25.90;99.90;;;;;;4917120;29;20283;-80
2022/06/13 07:31:58;;;;;;;6.43;4.10;;;26.00;99.90;;;;;;4919245;29;20214;-81
2022/06/13 07:34:27;;;;;;;10.40;6.60;;;26.00;99.90;;;;;;4919261;29;20234;-80
2022/06/13 07:36:56;;;;;;;7.47;6.67;;;26.10;99.90;;;;;;4903426;29;20204;-80
2022/06/13 07:39:23;;;;;;;8.63;5.57;;;26.20;99.90;;;;;;4918453;29;20692;-80
2022/06/13 07:41:51;;;;;;;8.57;4.87;;;26.00;99.90;;;;;;4919494;29;20227;-81
2022/06/13 07:44:23;;;;;;;6.27;4.87;;;26.00;99.90;;;;;;4898542;29;20227;-80
2022/06/13 07:46:51;;;;;;;7.03;4.50;;;25.80;99.90;;;;;;4905261;29;20218;-81
2022/06/13 07:49:19;;;;;;;7.73;5.13;;;26.00;99.90;;;;;;4894690;29;20262;-80
2022/06/13 07:51:46;;;;;;;7.10;5.73;;;26.10;99.90;;;;;;4916027;29;20196;-80
2022/06/13 07:54:15;;;;;;;6.67;4.17;;;26.40;99.90;;;;;;4916280;29;20331;-80
2022/06/13 07:56:43;;;;;;;8.30;7.33;;;26.10;99.90;;;;;;4918536;29;20704;-81
2022/06/13 07:59:15;;;;;;;8.90;7.27;;;26.40;99.90;;;;;;4909010;29;20204;-80
2022/06/13 08:01:43;;;;;;;8.60;7.43;;;26.20;99.90;;;;;;4898267;29;20204;-80
2022/06/13 08:04:10;;;;;;;8.20;7.50;;;26.00;99.90;;;;;;4896435;29;20271;-80
2022/06/13 08:06:38;;;;;;;8.93;7.90;;;26.30;99.90;;;;;;4915132;29;20618;-81
2022/06/13 08:09:05;;;;;;;8.07;7.27;;;26.50;99.90;;;;;;4900558;29;20279;-80
2022/06/13 08:11:36;;;;;;;7.73;7.03;;;26.10;99.90;;;;;;4915357;29;20192;-80
2022/06/13 08:14:06;;;;;;;6.30;5.80;;;26.00;99.90;;;;;;4917739;29;20225;-79
2022/06/13 08:16:34;;;;;;;7.73;4.33;;;26.20;99.90;;;;;;4917323;29;20252;-80
2022/06/13 08:19:04;;;;;;;6.77;5.70;;;26.30;99.90;;;;;;4909350;29;20224;-80
2022/06/13 08:21:31;;;;;;;6.73;4.50;;;26.30;99.90;;;;;;4904036;29;20227;-79
2022/06/13 08:23:58;;;;;;;8.23;5.60;;;26.50;99.90;;;;;;4898428;29;20235;-80
2022/06/13 08:26:25;;;;;;;6.63;6.03;;;26.40;99.90;;;;;;4911377;29;20200;-80
2022/06/13 08:28:52;;;;;;;8.53;6.97;;;26.60;99.90;;;;;;4892897;29;20692;-79
2022/06/13 08:31:21;;;;;;;8.40;7.40;;;26.80;99.90;;;;;;4896383;29;20212;-80
2022/06/13 08:33:48;;;;;;;7.50;6.80;;;26.80;99.90;;;;;;4897943;29;20628;-80
2022/06/13 08:36:16;;;;;;;8.23;6.03;;;27.00;99.90;;;;;;4917944;29;20204;-80
2022/06/13 08:38:43;;;;;;;5.43;3.20;;;26.90;99.90;;;;;;4898214;29;20624;-80
2022/06/13 08:41:20;;;;;;;5.97;3.70;;;26.70;99.90;;;;;;4897264;29;20208;-80
2022/06/13 08:44:10;;;;;;;7.70;3.73;;;26.90;99.90;;;;;;4910239;29;20251;-80
2022/06/13 08:46:50;;;;;;;6.03;3.60;;;27.00;99.90;;;;;;4898608;29;20259;-81
2022/06/13 08:49:27;;;;;;;6.87;6.07;;;27.50;99.90;;;;;;4914466;29;20253;-80
2022/06/13 08:52:03;;;;;;;7.80;6.00;;;27.00;99.90;;;;;;4902990;29;20215;-81
2022/06/13 08:54:34;;;;;;;5.17;4.30;;;26.30;99.90;;;;;;4912328;29;20231;-80
2022/06/13 08:57:05;;;;;;;5.47;4.50;;;25.90;99.90;;;;;;4900094;29;20208;-81
2022/06/13 08:59:37;;;;;;;9.37;5.37;;;25.50;99.90;;;;;;4899214;29;20572;-81
2022/06/13 09:02:11;;;;;;;5.57;5.07;;;25.10;99.90;;;;;;4899213;29;20956;-80
2022/06/13 09:04:42;;;;;;;6.20;3.07;;;24.90;99.90;;;;;;4917148;29;20215;-80
2022/06/13 09:07:16;;;;;;;7.97;3.50;;;25.60;99.90;;;;;;4897846;29;20581;-81
2022/06/13 09:09:50;;;;;;;4.30;3.00;;;26.20;99.90;;;;;;4896997;29;20215;-80
2022/06/13 09:12:22;;;;;;;8.50;7.80;;;26.70;99.90;;;;;;4908985;29;20695;-80
2022/06/13 09:15:05;;;;;;;7.93;3.50;;;27.10;99.90;;;;;;4898122;29;20235;-82
2022/06/13 09:17:41;;;;;;;7.30;5.93;;;27.10;99.90;;;;;;4903481;29;20207;-80
2022/06/13 09:20:14;;;;;;;7.67;7.07;;;26.20;99.90;;;;;;4909523;29;20271;-80
2022/06/13 09:22:51;;;;;;;6.23;5.60;;;25.50;99.90;;;;;;4913838;29;20203;-79
2022/06/13 09:25:24;;;;;;;7.40;6.73;;;24.80;99.90;;;;;;4919260;29;20783;-80
2022/06/13 09:27:58;;;;;;;6.83;2.90;;;25.20;99.90;;;;;;4920543;29;20192;-80
2022/06/13 09:30:30;;;;;;;6.43;2.80;;;26.20;99.90;;;;;;4901258;29;20222;-80
2022/06/13 09:32:59;;;;;;;7.60;6.40;;;26.90;99.90;;;;;;4912794;29;20200;-80
2022/06/13 09:35:29;;;;;;;9.87;6.90;;;27.60;99.90;;;;;;4920735;29;20220;-80
2022/06/13 09:38:04;;;;;;;5.40;3.10;;;28.10;98.80;;;;;;4899478;29;20276;-80
2022/06/13 09:40:38;;;;;;;7.63;5.87;;;28.30;98.40;;;;;;4903373;29;20196;-81
2022/06/13 09:43:18;;;;;;;5.83;4.23;;;28.40;99.10;;;;;;4900525;29;20209;-80
2022/06/13 09:45:54;;;;;;;8.17;6.03;;;28.40;96.00;;;;;;4910874;29;20242;-80
2022/06/13 09:48:38;;;;;;;7.10;6.03;;;28.60;97.90;;;;;;4902381;29;20583;-80
2022/06/13 09:51:18;;;;;;;8.00;6.90;;;28.30;96.50;;;;;;4902797;29;20236;-80
2022/06/13 09:53:57;;;;;;;7.50;6.80;;;27.10;96.50;;;;;;4896555;29;20811;-79
2022/06/13 09:56:31;;;;;;;8.87;8.00;;;26.50;98.30;;;;;;4907291;29;20222;-80
2022/06/13 09:59:17;;;;;;;7.73;6.20;;;26.20;97.90;;;;;;4925011;29;20197;-80
2022/06/13 10:01:49;;;;;;;8.73;3.90;;;26.20;98.20;;;;;;4916399;29;20207;-80
2022/06/13 10:04:26;;;;;;;5.83;3.50;;;26.50;99.60;;;;;;4912471;29;20313;-80
2022/06/13 10:07:04;;;;;;;6.37;3.67;;;26.70;98.00;;;;;;4912091;29;20199;-80
2022/06/13 10:09:43;;;;;;;6.03;3.93;;;26.90;99.00;;;;;;4907155;29;20222;-80
2022/06/13 10:12:26;;;;;;;4.67;3.40;;;27.00;96.90;;;;;;4916775;29;20666;-79
2022/06/13 10:15:06;;;;;;;5.07;4.47;;;26.80;97.20;;;;;;4916576;29;20705;-79
2022/06/13 10:17:54;;;;;;;8.47;7.23;;;26.10;98.00;;;;;;4906267;29;20250;-80
2022/06/13 10:20:32;;;;;;;6.57;4.47;;;25.40;97.50;;;;;;4918677;29;20195;-79
2022/06/13 10:23:07;;;;;;;8.27;5.50;;;24.90;98.80;;;;;;4904039;29;20212;-80
2022/06/13 10:25:52;;;;;;;5.27;4.50;;;24.60;99.50;;;;;;4897432;29;20223;-79
2022/06/13 10:28:44;;;;;;;6.90;6.30;;;24.90;98.50;;;;;;4889812;29;20212;-80
2022/06/13 10:31:22;;;;;;;6.43;4.93;;;25.40;98.60;;;;;;4911969;29;20220;-80
2022/06/13 10:33:56;;;;;;;3.77;2.80;;;25.90;98.60;;;;;;4901155;29;20208;-80
2022/06/13 10:36:29;;;;;;;5.27;3.90;;;26.30;98.10;;;;;;4902878;29;20203;-79
2022/06/13 10:39:01;;;;;;;4.27;2.83;;;26.40;96.30;;;;;;4901948;29;20208;-80
2022/06/13 10:41:31;;;;;;;3.00;2.60;;;26.50;96.30;;;;;;4916884;29;20199;-79
2022/06/13 10:43:59;;;;;;;3.63;3.00;;;26.50;96.00;;;;;;4917540;29;20231;-80
2022/06/13 10:46:26;;;;;;;4.30;3.90;;;26.70;97.50;;;;;;4902151;29;20211;-79
2022/06/13 10:48:57;;;;;;;5.47;4.37;;;27.00;97.30;;;;;;4915264;29;20259;-80
2022/06/13 10:51:24;;;;;;;5.60;3.53;;;26.90;96.20;;;;;;4913197;29;20696;-80
2022/06/13 10:53:55;;;;;;;6.87;2.90;;;26.80;96.70;;;;;;4895806;29;20224;-79
2022/06/13 10:56:26;;;;;;;4.73;3.03;;;26.70;96.50;;;;;;4913395;29;20283;-79
2022/06/13 10:58:57;;;;;;;4.07;2.90;;;26.90;97.20;;;;;;4898370;29;20573;-80
2022/06/13 11:01:28;;;;;;;7.37;6.40;;;26.30;97.20;;;;;;4899451;29;20204;-79
2022/06/13 11:04:06;;;;;;;6.30;5.80;;;25.50;96.40;;;;;;4915191;29;20275;-79
2022/06/13 11:06:44;;;;;;;6.70;6.30;;;25.50;96.70;;;;;;4900938;29;20208;-80
2022/06/13 11:09:28;;;;;;;5.30;2.57;;;25.70;98.90;;;;;;4913119;29;20545;-79
2022/06/13 11:11:57;;;;;;;3.30;2.47;;;26.10;98.70;;;;;;4919635;29;20720;-81
2022/06/13 11:14:34;;;;;;;3.33;2.53;;;26.50;97.80;;;;;;4918814;29;20219;-79
2022/06/13 11:22:40;;;;;;;6.73;6.13;;;26.20;96.80;;;;;;4918973;29;20196;-80
2022/06/13 11:25:18;;;;;;;6.23;5.80;;;25.90;96.60;;;;;;4900264;29;20224;-79
2022/06/13 11:27:47;;;;;;;5.53;5.00;;;26.00;96.30;;;;;;4901586;29;20222;-80
2022/06/13 11:30:38;;;;;;;5.20;4.80;;;26.00;96.40;;;;;;4918321;29;20228;-79
2022/06/13 11:33:08;;;;;;;7.70;7.00;;;25.70;96.30;;;;;;4902305;29;20298;-81
2022/06/13 11:35:38;;;;;;;6.50;5.20;;;25.40;96.90;;;;;;4913358;29;20228;-80
2022/06/13 11:38:18;;;;;;;5.53;5.03;;;25.40;98.00;;;;;;4919731;29;20196;-79
2022/06/13 11:40:47;;;;;;;6.47;5.90;;;25.70;97.50;;;;;;4906176;29;20306;-78
2022/06/13 11:43:24;;;;;;;7.00;6.37;;;25.70;97.90;;;;;;4911032;29;20211;-79
2022/06/13 11:45:59;;;;;;;5.00;3.87;;;25.60;95.60;;;;;;4916888;29;20693;-79
2022/06/13 11:48:28;;;;;;;5.43;4.93;;;25.40;97.30;;;;;;4895897;29;20219;-80
2022/06/13 11:50:56;;;;;;;5.40;2.37;;;25.40;96.50;;;;;;4898129;29;20215;-79
2022/06/13 11:53:38;;;;;;;6.50;6.00;;;25.50;97.50;;;;;;4918650;29;20215;-80
2022/06/13 11:56:11;;;;;;;5.53;5.03;;;26.00;97.40;;;;;;4897267;29;20208;-79
2022/06/13 11:58:41;;;;;;;6.70;6.10;;;26.20;97.20;;;;;;4911301;29;20192;-80
2022/06/13 12:01:22;;;;;;;28.70;8.10;;;25.70;94.00;;;;;;4915395;29;20658;-80
2022/06/13 12:04:00;;;;;;;5.00;2.60;;;25.40;95.80;;;;;;4891602;29;20201;-80
2022/06/13 12:06:27;;;;;;;3.03;2.20;;;25.40;96.50;;;;;;4911246;29;20207;-80
2022/06/13 12:09:03;;;;;;;3.07;2.13;;;25.40;96.40;;;;;;4917476;29;20259;-80
2022/06/13 12:11:30;;;;;;;6.17;2.77;;;25.50;94.80;;;;;;4915398;29;20223;-80
2022/06/13 12:13:59;;;;;;;5.40;2.50;;;25.50;95.10;;;;;;4896673;29;20279;-80
2022/06/13 12:16:39;;;;;;;4.10;2.20;;;25.60;95.00;;;;;;4896728;29;20299;-80
2022/06/13 12:19:24;;;;;;;2.30;2.07;;;25.60;94.70;;;;;;4919005;29;20204;-80
2022/06/13 12:21:56;;;;;;;3.43;2.23;;;25.70;95.50;;;;;;4901554;29;20199;-80
2022/06/13 12:24:28;;;;;;;3.50;2.10;;;25.80;94.70;;;;;;4901880;29;20239;-80
2022/06/13 12:27:04;;;;;;;4.03;2.30;;;25.90;94.50;;;;;;4900963;29;20259;-80
2022/06/13 12:29:49;;;;;;;3.70;2.20;;;25.80;94.50;;;;;;4909218;29;20287;-80
2022/06/13 12:32:23;;;;;;;3.97;2.40;;;25.80;93.90;;;;;;4906736;29;20209;-80
2022/06/13 12:35:00;;;;;;;2.73;2.10;;;25.70;94.30;;;;;;4917137;29;20243;-81
2022/06/13 12:37:35;;;;;;;3.67;2.40;;;25.60;94.40;;;;;;4904520;29;20684;-80
2022/06/13 12:40:19;;;;;;;4.57;2.00;;;25.50;94.40;;;;;;4903858;29;20212;-79
2022/06/13 12:43:13;;;;;;;4.23;3.93;;;25.60;94.00;;;;;;4890379;29;20214;-80
2022/06/13 12:45:50;;;;;;;4.20;3.80;;;25.70;94.90;;;;;;4907087;29;20712;-80
2022/06/13 12:48:35;;;;;;;5.47;4.50;;;25.70;94.10;;;;;;4904973;29;20236;-81
2022/06/13 12:51:13;;;;;;;6.53;5.83;;;25.70;93.90;;;;;;4898756;29;20208;-80
2022/06/13 12:54:11;;;;;;;6.83;6.20;;;25.40;94.60;;;;;;4897704;29;20200;-80
2022/06/13 12:56:45;;;;;;;6.60;6.00;;;25.50;95.00;;;;;;4901057;29;20216;-80
2022/06/13 12:59:24;;;;;;;4.47;4.10;;;25.10;93.80;;;;;;4915723;29;20670;-80
2022/06/13 13:02:10;;;;;;;2.90;2.30;;;24.80;93.40;;;;;;4924614;29;20286;-80
2022/06/13 13:05:12;;;;;;;5.63;4.90;;;24.70;94.80;;;;;;4914333;29;20305;-80
2022/06/13 13:07:47;;;;;;;6.57;5.97;;;24.70;94.80;;;;;;4906200;29;20206;-80
2022/06/13 13:10:27;;;;;;;6.97;6.27;;;24.80;94.00;;;;;;4903803;29;20630;-80
2022/06/13 13:13:19;;;;;;;5.80;5.40;;;25.00;95.00;;;;;;4923437;29;20218;-80
2022/06/13 13:15:51;;;;;;;6.57;5.80;;;25.20;93.20;;;;;;4897328;29;20263;-79
2022/06/13 13:18:27;;;;;;;6.30;5.70;;;25.00;94.30;;;;;;4919882;29;20219;-81
2022/06/13 13:21:00;;;;;;;5.63;5.20;;;24.90;94.10;;;;;;4929752;29;20196;-79
2022/06/13 13:23:37;;;;;;;5.87;5.37;;;25.00;95.30;;;;;;4928638;29;20196;-80
2022/06/13 13:26:19;;;;;;;6.37;5.37;;;25.10;93.60;;;;;;4924901;29;20239;-79
2022/06/13 13:28:56;;;;;;;6.57;5.30;;;24.80;93.10;;;;;;4914229;29;20214;-79
2022/06/13 13:31:31;;;;;;;3.33;2.70;;;24.60;94.60;;;;;;4924870;29;20708;-79